METAR Data
IDs: Format: Raw Decoded Include TAF

Data at: 0845 UTC 07 Apr 2020

METAR for:KHWY (Warrenton/Fauquier A, VA, US)
Text:KHWY 070835Z AUTO 00000KT 10SM SCT065 SCT080 SCT095 09/06 A2996 RMK AO2 T00870060
Temperature: 8.7°C ( 48°F)
Dewpoint: 6.0°C ( 43°F) [RH = 83%]
Pressure (altimeter):29.96 inches Hg (1014.6 mb)
Winds:calm
Visibility:10 or more sm (16+ km)
Ceiling:at least 12,000 feet AGL
Clouds: scattered clouds at 6500 feet AGL, scattered clouds at 8000 feet AGL, scattered clouds at 9500 feet AGL
QC Flag:automated observation with no human augmentation